Time;durP1;ratioP1;P1;durP2;ratioP2;P2;SDS_P1;SDS_P2;PMS_P1;PMS_P2;Temp;Humidity;BMP_temperature;BMP_pressure;BME280_temperature;BME280_humidity;BME280_pressure;Samples;Min_cycle;Max_cycle;Signal;HPM_P1;HPM_P2
2023/12/11 00:01:22;;;;;;;17.80;15.55;;;1.80;99.90;;;;;;4944195;28;20061;-75
2023/12/11 00:03:48;;;;;;;4.43;4.30;;;1.80;99.90;;;;;;4947285;29;20051;-74
2023/12/11 00:06:16;;;;;;;0.20;0.20;;;1.80;99.90;;;;;;4946703;29;20034;-74
2023/12/11 00:08:42;;;;;;;0.10;0.10;;;1.80;99.90;;;;;;4947893;29;20619;-74
2023/12/11 00:11:09;;;;;;;0.10;0.10;;;1.70;99.90;;;;;;4950833;29;20031;-74
2023/12/11 00:13:34;;;;;;;5.95;5.75;;;1.60;99.90;;;;;;4950270;29;20054;-74
2023/12/11 00:16:00;;;;;;;0.30;0.30;;;1.60;99.90;;;;;;4947039;29;20656;-75
2023/12/11 00:18:26;;;;;;;12.95;12.20;;;1.60;99.90;;;;;;4949467;29;20525;-74
2023/12/11 00:20:53;;;;;;;3.40;3.30;;;1.60;99.90;;;;;;4956439;29;20111;-74
2023/12/11 00:23:19;;;;;;;0.10;0.10;;;1.50;99.90;;;;;;4948233;29;20086;-74
2023/12/11 00:25:48;;;;;;;0.22;0.22;;;1.50;99.90;;;;;;4951465;28;20027;-73
2023/12/11 00:28:17;;;;;;;1.65;1.55;;;1.50;99.90;;;;;;4989380;28;20178;-75
2023/12/11 00:30:43;;;;;;;1.05;1.05;;;1.70;99.90;;;;;;4990402;28;20585;-75
2023/12/11 00:33:09;;;;;;;22.10;21.02;;;1.60;99.90;;;;;;4995684;28;20018;-74
2023/12/11 00:35:35;;;;;;;0.10;0.10;;;1.50;99.90;;;;;;4982936;28;20483;-74
2023/12/11 00:38:00;;;;;;;0.10;0.10;;;1.60;99.90;;;;;;4983481;28;20030;-73
2023/12/11 00:40:26;;;;;;;0.30;0.30;;;1.50;99.90;;;;;;4983369;28;20030;-74
2023/12/11 00:42:52;;;;;;;0.20;0.20;;;1.50;99.90;;;;;;4965139;28;20692;-74
2023/12/11 00:45:18;;;;;;;38.72;35.97;;;1.40;99.90;;;;;;4982756;28;20030;-73
2023/12/11 00:47:44;;;;;;;0.40;0.40;;;1.50;99.90;;;;;;4966807;28;20049;-73
2023/12/11 00:50:10;;;;;;;2.83;2.72;;;1.50;99.90;;;;;;4988600;28;20030;-73
2023/12/11 00:52:35;;;;;;;0.70;0.70;;;1.50;99.90;;;;;;4993576;28;20081;-74
2023/12/11 00:55:02;;;;;;;14.20;12.75;;;1.50;99.90;;;;;;4998768;28;20046;-74
2023/12/11 00:57:31;;;;;;;4.05;3.92;;;1.60;99.90;;;;;;5002461;28;20033;-74
2023/12/11 00:59:57;;;;;;;0.82;0.82;;;1.60;99.90;;;;;;4987325;28;20090;-74
2023/12/11 01:02:22;;;;;;;4.88;4.68;;;1.60;99.90;;;;;;4986656;28;20118;-73
2023/12/11 01:04:48;;;;;;;1.55;1.50;;;1.70;99.90;;;;;;4998219;28;20030;-81
2023/12/11 01:07:14;;;;;;;6.35;5.78;;;1.70;99.90;;;;;;4998774;28;20017;-78
2023/12/11 01:09:41;;;;;;;1.25;1.25;;;1.80;99.90;;;;;;5000032;28;20026;-74
2023/12/11 01:12:07;;;;;;;4.45;4.30;;;1.90;99.90;;;;;;4986802;28;20025;-74
2023/12/11 01:14:33;;;;;;;0.52;0.52;;;1.90;99.90;;;;;;4985460;28;20018;-73
2023/12/11 01:16:59;;;;;;;2.85;2.75;;;1.80;99.90;;;;;;4988214;28;20045;-73
2023/12/11 01:19:24;;;;;;;0.30;0.30;;;1.80;99.90;;;;;;4987572;28;20029;-73
2023/12/11 01:21:50;;;;;;;0.40;0.40;;;1.80;99.90;;;;;;4996563;28;20054;-73
2023/12/11 01:24:16;;;;;;;0.20;0.20;;;1.70;99.90;;;;;;4976177;28;20030;-73
2023/12/11 01:26:42;;;;;;;10.10;9.75;;;1.60;99.90;;;;;;4984233;28;20703;-73
2023/12/11 01:29:08;;;;;;;2.72;2.63;;;1.70;99.90;;;;;;4959453;29;20082;-74
2023/12/11 01:31:34;;;;;;;0.15;0.15;;;1.60;99.90;;;;;;4960991;29;20039;-73
2023/12/11 01:33:59;;;;;;;28.85;26.70;;;1.70;99.90;;;;;;4955111;29;20023;-73
2023/12/11 01:36:25;;;;;;;6.18;5.93;;;1.70;99.90;;;;;;4954368;29;20059;-75
2023/12/11 01:38:51;;;;;;;1.20;1.17;;;1.80;99.90;;;;;;4953845;29;20035;-73
2023/12/11 01:41:17;;;;;;;1.15;1.15;;;1.80;99.90;;;;;;4948791;29;20086;-73
2023/12/11 01:43:53;;;;;;;2.22;2.15;;;1.80;99.90;;;;;;4951566;29;20023;-74
2023/12/11 01:46:21;;;;;;;0.10;0.10;;;1.80;99.90;;;;;;4953304;29;20038;-73
2023/12/11 01:48:49;;;;;;;8.90;7.45;;;3.00;99.90;;;;;;4950976;28;20050;-78
2023/12/11 01:51:16;;;;;;;5.47;5.22;;;1.80;99.90;;;;;;4953700;29;20047;-73
2023/12/11 01:53:46;;;;;;;10.57;10.13;;;1.90;99.90;;;;;;4948846;29;20047;-73
2023/12/11 01:56:12;;;;;;;12.10;11.30;;;1.80;99.90;;;;;;4946782;28;20038;-75
2023/12/11 01:58:38;;;;;;;0.10;0.10;;;1.80;99.90;;;;;;4967476;28;20023;-73
2023/12/11 02:01:07;;;;;;;0.80;0.70;;;1.80;99.90;;;;;;4965924;28;20027;-74
2023/12/11 02:03:33;;;;;;;0.10;0.10;;;1.70;99.90;;;;;;4969576;28;20037;-74
2023/12/11 02:05:59;;;;;;;8.98;8.63;;;1.70;99.90;;;;;;4965427;28;20732;-74
2023/12/11 02:08:24;;;;;;;3.03;2.92;;;1.70;99.90;;;;;;4968874;28;20015;-74
2023/12/11 02:10:51;;;;;;;0.28;0.28;;;;;;;;;;4964735;28;20034;-73
2023/12/11 02:13:17;;;;;;;0.70;0.70;;;1.90;99.90;;;;;;4969487;28;20026;-74
2023/12/11 02:15:47;;;;;;;0.10;0.10;;;1.80;99.90;;;;;;4970781;28;20766;-77
2023/12/11 02:18:16;;;;;;;0.10;0.10;;;1.80;99.90;;;;;;4973991;28;20043;-74
2023/12/11 02:20:42;;;;;;;0.65;0.65;;;1.70;99.90;;;;;;4976817;28;20050;-74
2023/12/11 02:23:46;;;;;;;0.10;0.10;;;1.70;99.90;;;;;;4977798;28;20023;-74
2023/12/11 02:26:17;;;;;;;0.40;0.40;;;1.60;99.90;;;;;;4943581;28;20062;-75
2023/12/11 02:28:43;;;;;;;2.75;2.65;;;1.70;99.90;;;;;;4977965;28;20023;-74
2023/12/11 02:31:10;;;;;;;0.47;0.47;;;1.70;99.90;;;;;;4980244;28;20029;-75
2023/12/11 02:33:36;;;;;;;0.10;0.10;;;1.70;99.90;;;;;;4977346;28;20098;-82
2023/12/11 02:36:02;;;;;;;0.10;0.10;;;1.70;99.90;;;;;;4974260;28;20042;-75
2023/12/11 02:38:28;;;;;;;0.20;0.20;;;1.60;99.90;;;;;;4976164;28;20018;-74
2023/12/11 02:40:54;;;;;;;6.10;5.78;;;1.60;99.90;;;;;;4971517;28;20037;-77
2023/12/11 02:43:20;;;;;;;0.17;0.17;;;1.60;99.90;;;;;;4959942;28;20037;-79
2023/12/11 02:45:46;;;;;;;1.67;1.63;;;1.60;99.90;;;;;;4974774;28;20050;-73
2023/12/11 02:48:12;;;;;;;0.10;0.10;;;1.70;99.90;;;;;;4974705;28;20059;-74
2023/12/11 02:50:38;;;;;;;0.10;0.10;;;1.70;99.90;;;;;;4975975;28;20031;-74
2023/12/11 02:53:04;;;;;;;2.95;2.85;;;1.70;99.90;;;;;;4976859;28;20058;-74
2023/12/11 02:55:30;;;;;;;10.45;9.73;;;1.70;99.90;;;;;;4974394;28;20034;-75
2023/12/11 02:58:00;;;;;;;0.45;0.45;;;1.80;99.90;;;;;;4978282;28;20022;-75
2023/12/11 03:00:30;;;;;;;23.70;21.95;;;1.70;99.90;;;;;;4976284;28;20031;-75
2023/12/11 03:02:57;;;;;;;0.08;0.08;;;1.70;99.90;;;;;;4970685;28;20213;-75
2023/12/11 03:05:23;;;;;;;0.10;0.10;;;1.70;99.90;;;;;;4973209;28;20045;-74
2023/12/11 03:07:49;;;;;;;0.10;0.10;;;1.80;99.90;;;;;;4969132;28;20517;-74
2023/12/11 03:10:15;;;;;;;0.60;0.60;;;1.80;99.90;;;;;;4974104;28;20038;-74
2023/12/11 03:12:41;;;;;;;0.25;0.25;;;1.80;99.90;;;;;;4973082;28;20033;-75
2023/12/11 03:15:09;;;;;;;2.60;2.50;;;1.70;99.90;;;;;;4958103;28;20022;-73
2023/12/11 03:17:35;;;;;;;0.73;0.73;;;1.70;99.90;;;;;;4967903;28;20101;-74
2023/12/11 03:20:02;;;;;;;0.30;0.30;;;1.70;99.90;;;;;;4972030;28;20055;-77
2023/12/11 03:22:28;;;;;;;3.67;3.55;;;1.70;99.90;;;;;;4974835;28;20037;-73
2023/12/11 03:24:54;;;;;;;0.30;0.30;;;1.80;99.90;;;;;;4971819;28;20027;-74
2023/12/11 03:27:20;;;;;;;0.10;0.10;;;1.80;99.90;;;;;;4977590;28;20521;-74
2023/12/11 03:29:46;;;;;;;9.15;8.77;;;1.90;99.90;;;;;;4993856;28;20041;-77
2023/12/11 03:32:12;;;;;;;3.95;3.83;;;1.80;99.90;;;;;;4989872;28;20034;-74
2023/12/11 03:34:38;;;;;;;0.10;0.10;;;1.80;99.90;;;;;;4991183;28;20054;-74
2023/12/11 03:37:04;;;;;;;0.85;0.85;;;1.80;99.90;;;;;;4991391;28;20018;-74
2023/12/11 03:39:29;;;;;;;0.30;0.30;;;1.70;99.90;;;;;;4991742;28;20040;-74
2023/12/11 03:41:56;;;;;;;4.10;3.92;;;1.70;99.90;;;;;;4974130;28;20093;-74
2023/12/11 03:44:21;;;;;;;3.88;3.70;;;1.70;99.90;;;;;;4987786;28;20730;-74
2023/12/11 03:46:47;;;;;;;0.20;0.20;;;1.70;99.90;;;;;;4989329;28;20018;-74
2023/12/11 03:49:17;;;;;;;0.10;0.10;;;1.80;99.90;;;;;;4990844;28;20050;-74
2023/12/11 03:51:46;;;;;;;0.13;0.13;;;1.80;99.90;;;;;;4992523;28;20022;-73
2023/12/11 03:54:12;;;;;;;0.28;0.28;;;1.80;99.90;;;;;;4972231;28;20037;-74
2023/12/11 03:56:42;;;;;;;1.40;1.40;;;1.80;99.90;;;;;;4971556;28;20586;-73
2023/12/11 03:59:08;;;;;;;0.00;0.00;;;1.80;99.90;;;;;;4931957;29;20039;-74
2023/12/11 04:01:34;;;;;;;13.35;6.22;;;1.80;99.90;;;;;;4948819;29;20150;-73
2023/12/11 04:04:00;;;;;;;0.10;0.10;;;1.70;99.90;;;;;;4950727;29;20816;-74
2023/12/11 04:06:26;;;;;;;0.20;0.20;;;3.60;99.90;;;;;;4949262;29;20019;-74
2023/12/11 04:08:52;;;;;;;0.10;0.10;;;1.50;99.90;;;;;;4948311;29;20230;-74
2023/12/11 04:11:18;;;;;;;0.10;0.10;;;1.50;99.90;;;;;;4946978;29;20047;-74
2023/12/11 04:13:44;;;;;;;0.20;0.20;;;1.50;99.90;;;;;;4949616;29;20096;-74
2023/12/11 04:16:10;;;;;;;0.15;0.15;;;1.30;99.90;;;;;;4946387;29;20094;-74
2023/12/11 04:18:38;;;;;;;0.10;0.10;;;1.20;99.90;;;;;;4948929;29;20031;-74
2023/12/11 04:21:05;;;;;;;0.20;0.20;;;1.20;99.90;;;;;;4950247;29;20115;-74
2023/12/11 04:23:31;;;;;;;0.10;0.10;;;1.10;99.90;;;;;;4948046;29;20154;-76
2023/12/11 04:25:58;;;;;;;0.20;0.20;;;1.00;99.90;;;;;;4947767;29;20024;-74
2023/12/11 04:28:25;;;;;;;0.10;0.10;;;1.00;99.90;;;;;;4947487;29;20027;-75
2023/12/11 04:30:51;;;;;;;0.10;0.10;;;1.00;99.90;;;;;;4949285;29;20030;-75
2023/12/11 04:33:17;;;;;;;0.10;0.10;;;1.00;99.90;;;;;;4947541;29;20032;-74
2023/12/11 04:35:44;;;;;;;0.10;0.10;;;1.00;99.90;;;;;;4945214;29;20086;-75
2023/12/11 04:38:10;;;;;;;0.10;0.10;;;0.90;99.90;;;;;;4949758;29;20022;-74
2023/12/11 04:40:36;;;;;;;0.10;0.10;;;0.90;99.90;;;;;;4947740;29;20026;-74
2023/12/11 04:43:02;;;;;;;0.20;0.20;;;1.00;99.90;;;;;;4945523;29;20099;-74
2023/12/11 04:45:28;;;;;;;0.10;0.10;;;1.00;99.90;;;;;;4945773;29;20092;-74
2023/12/11 04:47:54;;;;;;;0.10;0.10;;;;;;;;;;4946297;28;20039;-76
2023/12/11 04:50:20;;;;;;;0.10;0.10;;;1.10;99.90;;;;;;4953566;29;20304;-74
2023/12/11 04:52:46;;;;;;;0.10;0.10;;;1.20;99.90;;;;;;4952972;29;20502;-75
2023/12/11 04:55:11;;;;;;;0.28;0.28;;;1.30;99.90;;;;;;4949811;29;20027;-75
2023/12/11 04:57:37;;;;;;;0.63;0.63;;;1.30;99.90;;;;;;4950388;29;20071;-74
2023/12/11 05:00:04;;;;;;;27.42;25.88;;;1.30;99.90;;;;;;4949967;29;20035;-75
2023/12/11 05:02:30;;;;;;;0.17;0.17;;;1.40;99.90;;;;;;4951461;29;20015;-74
2023/12/11 05:04:56;;;;;;;0.10;0.10;;;1.30;99.90;;;;;;4950368;29;20518;-75
2023/12/11 05:07:22;;;;;;;0.10;0.10;;;1.30;99.90;;;;;;4951827;29;20155;-76
2023/12/11 05:09:48;;;;;;;0.17;0.17;;;1.30;99.90;;;;;;4952180;29;20050;-74
2023/12/11 05:12:14;;;;;;;0.10;0.10;;;1.40;99.90;;;;;;4954349;29;20119;-74
2023/12/11 05:14:40;;;;;;;0.30;0.30;;;1.40;99.90;;;;;;4956250;29;20066;-75
2023/12/11 05:17:06;;;;;;;0.10;0.10;;;1.40;99.90;;;;;;4957063;29;20024;-74
2023/12/11 05:19:32;;;;;;;23.80;22.48;;;1.50;99.90;;;;;;4955525;29;20028;-75
2023/12/11 05:21:58;;;;;;;29.60;25.27;;;1.40;99.90;;;;;;4931496;29;20035;-74
2023/12/11 05:24:25;;;;;;;0.10;0.10;;;1.40;99.90;;;;;;4948532;29;20018;-75
2023/12/11 05:26:51;;;;;;;1.17;1.17;;;1.50;99.90;;;;;;4946028;29;20505;-75
2023/12/11 05:29:16;;;;;;;0.10;0.10;;;1.50;99.90;;;;;;4981176;28;20097;-75
2023/12/11 05:31:43;;;;;;;0.15;0.15;;;1.50;99.90;;;;;;4985882;28;20030;-74
2023/12/11 05:34:08;;;;;;;14.25;13.35;;;1.50;99.90;;;;;;4984852;28;20106;-77
2023/12/11 05:36:34;;;;;;;1.40;1.38;;;1.40;99.90;;;;;;4952478;28;20113;-75
2023/12/11 05:39:00;;;;;;;0.10;0.10;;;1.40;99.90;;;;;;4986788;28;20030;-76
2023/12/11 05:41:26;;;;;;;0.73;0.73;;;1.40;99.90;;;;;;4967253;28;20037;-74
2023/12/11 05:43:52;;;;;;;0.10;0.10;;;1.50;99.90;;;;;;4984698;28;20113;-75
2023/12/11 05:46:18;;;;;;;0.10;0.10;;;1.50;99.90;;;;;;4983631;28;20022;-77
2023/12/11 05:48:44;;;;;;;0.13;0.13;;;1.40;99.90;;;;;;4993219;28;20046;-74
2023/12/11 05:51:10;;;;;;;0.63;0.63;;;1.50;99.90;;;;;;4986309;28;20080;-77
2023/12/11 05:53:36;;;;;;;6.75;6.50;;;1.40;99.90;;;;;;5002928;28;20646;-75
2023/12/11 05:56:01;;;;;;;3.15;3.05;;;1.20;99.90;;;;;;5003089;28;20225;-76
2023/12/11 05:58:27;;;;;;;1.55;1.55;;;1.20;99.90;;;;;;4993598;28;20030;-76
2023/12/11 06:00:53;;;;;;;0.20;0.20;;;0.90;99.90;;;;;;4964799;28;20077;-76
2023/12/11 06:03:19;;;;;;;0.10;0.10;;;1.20;99.90;;;;;;4983091;28;20086;-77
2023/12/11 06:05:45;;;;;;;18.90;15.75;;;1.20;99.90;;;;;;4982907;28;20014;-78
2023/12/11 06:08:11;;;;;;;0.20;0.20;;;1.20;99.90;;;;;;4981363;28;20674;-76
2023/12/11 06:10:37;;;;;;;0.30;0.30;;;1.20;99.90;;;;;;4981276;28;20122;-75
2023/12/11 06:13:03;;;;;;;1.33;1.33;;;1.20;99.90;;;;;;4981046;28;20092;-76
2023/12/11 06:15:28;;;;;;;0.00;0.00;;;1.20;99.90;;;;;;4981431;28;20015;-76
2023/12/11 06:17:54;;;;;;;0.20;0.20;;;1.10;99.90;;;;;;4981877;28;20030;-74
2023/12/11 06:20:20;;;;;;;0.10;0.10;;;1.80;99.90;;;;;;4981606;28;20134;-74
2023/12/11 06:22:47;;;;;;;0.10;0.10;;;1.20;99.90;;;;;;4981651;28;20029;-75
2023/12/11 06:25:13;;;;;;;0.20;0.20;;;1.30;99.90;;;;;;4963825;28;20049;-75
2023/12/11 06:27:39;;;;;;;0.20;0.20;;;1.40;99.90;;;;;;4982384;28;20022;-74
2023/12/11 06:30:07;;;;;;;0.10;0.10;;;1.40;99.90;;;;;;4963593;28;20730;-78
2023/12/11 06:32:33;;;;;;;0.20;0.20;;;1.50;99.90;;;;;;4980716;28;20096;-78
2023/12/11 06:34:59;;;;;;;3.70;3.60;;;3.10;99.90;;;;;;4980806;28;20574;-74
2023/12/11 06:37:25;;;;;;;0.47;0.47;;;1.30;99.90;;;;;;4980788;28;20034;-73
2023/12/11 06:39:51;;;;;;;0.10;0.10;;;1.20;99.90;;;;;;4980241;28;20030;-74
2023/12/11 06:42:17;;;;;;;0.10;0.10;;;1.20;99.90;;;;;;4980870;28;20030;-74
2023/12/11 06:44:43;;;;;;;0.10;0.10;;;1.30;99.90;;;;;;4980830;28;20032;-73
2023/12/11 06:47:12;;;;;;;0.10;0.10;;;1.30;99.90;;;;;;4980770;28;20089;-76
2023/12/11 06:49:38;;;;;;;0.10;0.10;;;1.20;99.90;;;;;;4968658;28;20054;-74
2023/12/11 06:52:04;;;;;;;0.10;0.10;;;1.20;99.90;;;;;;4966663;28;20543;-75
2023/12/11 06:54:30;;;;;;;0.13;0.13;;;1.20;99.90;;;;;;4965856;28;20034;-74
2023/12/11 06:56:56;;;;;;;0.47;0.47;;;1.20;99.90;;;;;;4967734;28;20049;-74
2023/12/11 06:59:22;;;;;;;0.20;0.20;;;1.20;99.90;;;;;;4982088;28;20039;-75
2023/12/11 07:01:48;;;;;;;0.10;0.10;;;1.20;99.90;;;;;;4948495;28;20035;-74
2023/12/11 07:04:14;;;;;;;0.10;0.10;;;1.30;99.90;;;;;;4984307;28;20026;-75
2023/12/11 07:06:39;;;;;;;0.00;0.00;;;1.30;99.90;;;;;;4980548;28;20018;-74
2023/12/11 07:09:05;;;;;;;6.65;6.40;;;1.40;99.90;;;;;;4979672;28;20228;-76
2023/12/11 07:11:31;;;;;;;0.10;0.10;;;1.40;99.90;;;;;;4980412;28;20072;-75
2023/12/11 07:13:57;;;;;;;0.20;0.20;;;1.50;99.90;;;;;;4980902;28;20015;-74
2023/12/11 07:16:23;;;;;;;0.20;0.20;;;;;;;;;;4963106;28;20011;-74
2023/12/11 07:18:49;;;;;;;0.10;0.10;;;1.50;99.90;;;;;;4963647;28;20026;-78
2023/12/11 07:21:15;;;;;;;0.10;0.10;;;1.60;99.90;;;;;;4980741;28;20133;-75
2023/12/11 07:23:41;;;;;;;0.10;0.10;;;1.60;99.90;;;;;;4986463;28;20028;-74
2023/12/11 07:26:10;;;;;;;0.10;0.10;;;1.70;99.90;;;;;;4981148;28;20035;-74
2023/12/11 07:28:36;;;;;;;0.10;0.10;;;1.80;99.90;;;;;;4956090;28;20183;-74
2023/12/11 07:31:03;;;;;;;0.00;0.00;;;2.50;99.90;;;;;;4944767;29;20110;-75
2023/12/11 07:33:29;;;;;;;0.10;0.10;;;3.50;99.90;;;;;;4941596;29;20664;-81
2023/12/11 07:35:55;;;;;;;5.88;5.68;;;3.40;99.90;;;;;;4946096;29;20225;-75
2023/12/11 07:38:21;;;;;;;0.10;0.10;;;3.20;99.90;;;;;;4943809;29;20031;-73
2023/12/11 07:40:47;;;;;;;2.70;2.60;;;3.00;99.90;;;;;;4940399;29;20549;-74
2023/12/11 07:43:13;;;;;;;0.10;0.10;;;2.80;99.90;;;;;;4940274;29;20028;-74
2023/12/11 07:45:39;;;;;;;0.50;0.50;;;2.70;99.90;;;;;;4939976;28;20074;-76
2023/12/11 07:48:05;;;;;;;0.05;0.05;;;2.60;99.90;;;;;;4922525;28;20047;-76
2023/12/11 07:50:32;;;;;;;0.10;0.10;;;2.50;99.90;;;;;;4922849;29;20035;-75
2023/12/11 07:52:58;;;;;;;12.70;12.07;;;2.40;99.90;;;;;;4922897;29;20122;-74
2023/12/11 07:55:23;;;;;;;0.00;0.00;;;2.30;99.90;;;;;;4939804;29;20102;-78
2023/12/11 07:57:49;;;;;;;0.10;0.10;;;2.10;99.90;;;;;;4939458;28;20131;-75
2023/12/11 08:00:15;;;;;;;0.30;0.30;;;2.10;99.90;;;;;;4963325;28;20038;-74
2023/12/11 08:02:41;;;;;;;1.67;1.63;;;2.00;99.90;;;;;;4978370;28;20582;-73
2023/12/11 08:05:09;;;;;;;1.30;1.25;;;1.90;99.90;;;;;;4978117;28;20022;-73
2023/12/11 08:07:37;;;;;;;0.20;0.20;;;1.90;99.90;;;;;;4978388;28;20027;-75
2023/12/11 08:10:04;;;;;;;0.15;0.15;;;1.90;99.90;;;;;;4978054;28;20504;-74
2023/12/11 08:12:33;;;;;;;0.13;0.13;;;1.90;99.90;;;;;;4982044;28;20022;-74
2023/12/11 08:14:59;;;;;;;1.73;1.63;;;2.00;99.90;;;;;;4980987;28;20033;-75
2023/12/11 08:17:24;;;;;;;5.10;4.93;;;2.20;99.90;;;;;;4979588;28;20018;-77
2023/12/11 08:19:51;;;;;;;9.50;8.98;;;2.20;99.90;;;;;;4978356;28;20413;-75
2023/12/11 08:22:17;;;;;;;0.10;0.10;;;2.30;99.90;;;;;;4979095;28;20654;-74
2023/12/11 08:24:48;;;;;;;8.45;7.68;;;2.40;99.90;;;;;;4981685;28;20089;-74
2023/12/11 08:27:14;;;;;;;3.33;3.13;;;2.30;99.90;;;;;;4965142;28;20053;-76
2023/12/11 08:29:40;;;;;;;5.50;5.25;;;2.50;99.90;;;;;;4971489;28;20031;-75
2023/12/11 08:32:06;;;;;;;2.92;2.80;;;2.50;99.90;;;;;;4962566;28;20038;-74
2023/12/11 08:34:32;;;;;;;14.43;13.25;;;2.60;99.90;;;;;;4969347;28;20070;-74
2023/12/11 08:36:58;;;;;;;32.80;30.95;;;2.70;99.90;;;;;;4962615;28;20026;-74
2023/12/11 08:39:24;;;;;;;1.05;1.05;;;2.80;99.90;;;;;;4962539;28;20050;-75
2023/12/11 08:41:50;;;;;;;1.17;1.17;;;2.90;99.90;;;;;;4962673;28;20047;-75
2023/12/11 08:44:16;;;;;;;0.22;0.22;;;3.00;99.90;;;;;;4962394;28;20023;-75
2023/12/11 08:46:43;;;;;;;35.67;33.67;;;3.20;99.90;;;;;;4962125;28;20577;-74
2023/12/11 08:49:10;;;;;;;4.28;4.13;;;4.90;99.90;;;;;;4962169;28;20062;-74
2023/12/11 08:51:35;;;;;;;27.67;25.17;;;3.40;99.90;;;;;;4962317;28;20011;-74
2023/12/11 08:54:02;;;;;;;0.10;0.10;;;3.50;99.90;;;;;;4962068;28;20102;-73
2023/12/11 08:56:27;;;;;;;3.03;2.90;;;3.60;99.90;;;;;;4962481;28;20027;-73
2023/12/11 08:58:53;;;;;;;1.13;1.13;;;3.70;99.90;;;;;;4961597;28;20605;-74
2023/12/11 09:01:19;;;;;;;0.22;0.22;;;3.70;99.90;;;;;;4961799;28;20023;-74
2023/12/11 09:03:46;;;;;;;1.55;1.52;;;3.80;99.90;;;;;;4961970;28;20501;-74
2023/12/11 09:06:13;;;;;;;0.10;0.10;;;3.90;99.90;;;;;;4962074;28;20174;-74
2023/12/11 09:08:39;;;;;;;1.90;1.80;;;3.80;99.90;;;;;;4961937;28;20081;-74
2023/12/11 09:11:05;;;;;;;0.10;0.10;;;3.90;99.90;;;;;;4962047;28;20038;-74
2023/12/11 09:13:31;;;;;;;1.15;1.15;;;3.70;99.90;;;;;;4961696;28;20023;-75
2023/12/11 09:15:57;;;;;;;0.40;0.40;;;3.80;99.90;;;;;;4961447;28;20027;-74
2023/12/11 09:18:23;;;;;;;4.00;3.83;;;3.50;99.90;;;;;;4961533;28;20011;-74
2023/12/11 09:20:55;;;;;;;3.92;3.72;;;3.90;99.90;;;;;;4961752;28;20030;-75
2023/12/11 09:23:21;;;;;;;0.10;0.10;;;4.00;99.90;;;;;;4961868;28;20030;-74
2023/12/11 09:25:47;;;;;;;0.10;0.10;;;4.00;99.90;;;;;;4961802;28;20275;-75
2023/12/11 09:28:13;;;;;;;0.85;0.85;;;4.00;99.90;;;;;;4961953;28;20650;-75
2023/12/11 09:30:39;;;;;;;1.05;1.05;;;4.00;99.90;;;;;;4976504;28;20049;-74
2023/12/11 09:33:05;;;;;;;2.45;2.35;;;4.00;99.90;;;;;;4980798;28;20555;-74
2023/12/11 09:35:31;;;;;;;54.83;50.08;;;4.10;99.90;;;;;;4979682;28;20639;-75
2023/12/11 09:37:56;;;;;;;0.10;0.10;;;4.10;99.90;;;;;;4980669;28;20026;-76
2023/12/11 09:40:23;;;;;;;54.13;51.03;;;4.10;99.90;;;;;;4980587;28;20030;-74
2023/12/11 09:42:51;;;;;;;0.63;0.63;;;4.00;99.90;;;;;;4981157;28;20025;-74
2023/12/11 09:45:21;;;;;;;0.50;0.50;;;4.10;99.90;;;;;;4984391;28;20026;-74
2023/12/11 09:47:52;;;;;;;0.10;0.10;;;4.10;99.90;;;;;;4979848;28;20014;-74
2023/12/11 09:50:19;;;;;;;13.05;12.57;;;4.10;99.90;;;;;;4980149;28;20064;-73
2023/12/11 09:52:45;;;;;;;29.23;25.85;;;4.10;99.90;;;;;;4980216;28;20018;-75
2023/12/11 09:55:11;;;;;;;28.85;26.25;;;4.00;99.90;;;;;;4980422;28;20220;-74
2023/12/11 09:57:40;;;;;;;0.10;0.10;;;3.90;99.90;;;;;;4980541;28;20017;-75
2023/12/11 10:00:09;;;;;;;32.15;30.40;;;3.90;99.90;;;;;;4943465;28;20055;-75
2023/12/11 10:02:36;;;;;;;6.25;5.95;;;3.80;99.90;;;;;;4941691;28;20507;-74
2023/12/11 10:05:10;;;;;;;62.75;38.42;;;3.80;99.90;;;;;;4942422;29;20015;-74
2023/12/11 10:07:38;;;;;;;2.55;2.45;;;3.60;99.90;;;;;;4924514;29;20019;-75
2023/12/11 10:10:21;;;;;;;4.38;4.03;;;3.70;99.90;;;;;;4924356;29;20153;-75
2023/12/11 10:12:47;;;;;;;0.57;0.57;;;3.80;99.90;;;;;;4941820;29;20034;-76
2023/12/11 10:15:20;;;;;;;5.38;5.18;;;3.80;99.90;;;;;;4942117;29;20031;-75
2023/12/11 10:17:46;;;;;;;0.40;0.40;;;3.80;99.90;;;;;;4941652;28;20020;-75
2023/12/11 10:20:16;;;;;;;0.10;0.10;;;3.80;99.90;;;;;;4941750;29;20291;-76
2023/12/11 10:22:42;;;;;;;31.70;29.27;;;3.80;99.90;;;;;;4941664;29;20019;-74
2023/12/11 10:25:08;;;;;;;0.10;0.10;;;3.90;99.90;;;;;;4941636;29;20086;-74
2023/12/11 10:27:34;;;;;;;0.00;0.00;;;3.80;99.90;;;;;;4941237;29;20074;-73
2023/12/11 10:30:08;;;;;;;27.15;25.20;;;3.70;99.90;;;;;;4940961;29;20066;-73
2023/12/11 10:32:34;;;;;;;0.10;0.10;;;3.70;99.90;;;;;;4941360;29;20027;-74
2023/12/11 10:35:00;;;;;;;0.25;0.25;;;3.80;99.90;;;;;;4924228;29;20039;-74
2023/12/11 10:37:34;;;;;;;1.75;1.75;;;3.90;99.90;;;;;;4941511;29;20012;-73
2023/12/11 10:40:01;;;;;;;9.80;9.43;;;3.90;99.90;;;;;;4924326;29;20059;-74
2023/12/11 10:42:27;;;;;;;1.08;1.08;;;4.00;99.90;;;;;;4941309;29;20102;-75
2023/12/11 10:44:54;;;;;;;3.35;3.17;;;4.10;99.90;;;;;;4924170;29;20031;-73
2023/12/11 10:47:20;;;;;;;0.20;0.20;;;4.10;99.90;;;;;;4941044;28;20282;-75
2023/12/11 10:49:46;;;;;;;0.30;0.30;;;4.20;99.90;;;;;;4941415;28;20122;-74
2023/12/11 10:52:12;;;;;;;21.30;20.00;;;4.30;99.90;;;;;;4940990;29;20498;-73
2023/12/11 10:54:41;;;;;;;0.35;0.35;;;4.30;99.90;;;;;;4940724;29;20035;-74
2023/12/11 10:57:11;;;;;;;4.00;3.88;;;4.30;99.90;;;;;;4941638;29;20603;-74
2023/12/11 10:59:38;;;;;;;16.40;15.15;;;4.40;99.90;;;;;;4947075;28;20042;-74
2023/12/11 11:02:07;;;;;;;0.13;0.13;;;4.00;99.90;;;;;;4964184;28;20011;-75
2023/12/11 11:04:36;;;;;;;1.98;1.98;;;4.40;99.90;;;;;;4964237;28;20046;-76
2023/12/11 11:07:11;;;;;;;6.28;5.97;;;4.60;99.90;;;;;;4964080;28;20015;-75
2023/12/11 11:10:06;;;;;;;4.28;4.05;;;4.70;99.90;;;;;;4964367;28;20109;-76
2023/12/11 11:12:35;;;;;;;0.20;0.20;;;4.90;99.90;;;;;;4947485;28;20026;-75
2023/12/11 11:15:01;;;;;;;12.18;11.15;;;5.10;99.90;;;;;;4963315;28;20552;-75
2023/12/11 11:18:00;;;;;;;0.05;0.05;;;5.10;99.90;;;;;;4963080;28;20037;-74
2023/12/11 11:20:43;;;;;;;0.10;0.10;;;5.50;99.90;;;;;;4961892;28;20035;-74
2023/12/11 11:23:15;;;;;;;6.18;5.80;;;5.30;99.90;;;;;;4961917;28;20023;-74
2023/12/11 11:25:52;;;;;;;0.20;0.20;;;5.40;99.90;;;;;;4960842;28;20118;-78
2023/12/11 11:28:44;;;;;;;0.10;0.10;;;5.40;99.90;;;;;;4960556;28;20710;-74
2023/12/11 11:31:11;;;;;;;1.10;1.10;;;6.10;99.90;;;;;;4960664;28;20030;-75
2023/12/11 11:33:51;;;;;;;0.30;0.30;;;5.40;99.90;;;;;;4959686;28;20026;-74
2023/12/11 11:36:19;;;;;;;0.20;0.20;;;5.40;99.90;;;;;;4959862;28;20652;-74
2023/12/11 11:38:52;;;;;;;3.28;3.10;;;5.40;99.90;;;;;;4982167;23;20054;-74
2023/12/11 11:41:23;;;;;;;6.38;6.03;;;5.40;99.90;;;;;;4961191;28;20058;-74
2023/12/11 11:44:05;;;;;;;26.92;15.50;;;5.30;99.90;;;;;;4979141;28;20022;-74
2023/12/11 11:46:57;;;;;;;0.10;0.10;;;5.20;99.90;;;;;;4978610;28;20666;-74
2023/12/11 11:49:31;;;;;;;24.05;22.98;;;4.90;99.90;;;;;;4978444;28;20018;-75
2023/12/11 11:51:58;;;;;;;0.65;0.65;;;4.90;99.90;;;;;;4961398;28;20109;-75
2023/12/11 11:54:24;;;;;;;0.75;0.75;;;4.70;99.90;;;;;;5001444;28;20014;-75
2023/12/11 11:56:51;;;;;;;36.55;33.40;;;4.70;99.90;;;;;;4997892;28;20097;-74
2023/12/11 11:59:17;;;;;;;0.10;0.10;;;4.70;99.90;;;;;;4997226;28;20025;-74
2023/12/11 12:01:53;;;;;;;4.63;4.32;;;4.60;99.90;;;;;;4962450;28;20102;-74
2023/12/11 12:04:31;;;;;;;6.95;6.65;;;4.60;99.90;;;;;;4959073;28;20512;-74
2023/12/11 12:07:02;;;;;;;0.10;0.10;;;4.70;99.90;;;;;;4961516;28;20826;-73
2023/12/11 12:09:29;;;;;;;3.45;3.30;;;4.80;99.90;;;;;;4963448;28;20102;-73
2023/12/11 12:11:55;;;;;;;0.13;0.13;;;4.80;99.90;;;;;;4947186;28;20030;-75
2023/12/11 12:14:21;;;;;;;0.10;0.10;;;4.80;99.90;;;;;;4966218;28;20481;-76
2023/12/11 12:16:48;;;;;;;1.92;1.85;;;4.90;99.90;;;;;;4946538;28;20018;-77
2023/12/11 12:19:15;;;;;;;0.43;0.43;;;5.00;99.90;;;;;;4963418;28;20019;-77
2023/12/11 12:21:52;;;;;;;0.20;0.20;;;5.00;99.90;;;;;;4964164;28;20054;-74
2023/12/11 12:24:21;;;;;;;0.40;0.40;;;4.70;99.90;;;;;;4960401;28;20486;-75
2023/12/11 12:26:53;;;;;;;0.20;0.20;;;5.00;99.90;;;;;;4960096;28;20030;-74
2023/12/11 12:29:20;;;;;;;0.35;0.35;;;5.00;99.90;;;;;;4960105;28;20652;-74
2023/12/11 12:31:46;;;;;;;0.10;0.10;;;5.00;99.90;;;;;;4976714;28;20327;-75
2023/12/11 12:34:16;;;;;;;2.15;1.95;;;5.10;99.90;;;;;;4979086;28;20038;-76
2023/12/11 12:36:43;;;;;;;4.50;4.22;;;5.10;99.90;;;;;;4979378;28;20061;-75
2023/12/11 12:39:17;;;;;;;33.97;28.92;;;5.10;99.90;;;;;;4979453;28;20039;-75
2023/12/11 12:41:43;;;;;;;0.75;0.75;;;5.10;99.90;;;;;;4980014;28;20022;-75
2023/12/11 12:44:09;;;;;;;0.10;0.10;;;5.20;99.90;;;;;;4980378;28;20023;-75
2023/12/11 12:46:39;;;;;;;9.10;8.40;;;5.30;99.90;;;;;;4980754;28;20018;-75
2023/12/11 12:49:12;;;;;;;1.73;1.63;;;5.30;99.90;;;;;;4981513;28;20030;-75
2023/12/11 12:51:54;;;;;;;0.10;0.10;;;5.30;99.90;;;;;;4981985;28;20022;-75
2023/12/11 12:54:21;;;;;;;0.40;0.40;;;5.40;99.90;;;;;;4982402;28;20019;-75
2023/12/11 12:56:53;;;;;;;10.95;1.95;;;5.40;99.90;;;;;;4984456;28;20105;-75